createdAt,value
2018-04-14T00:01:12.919Z,35.40
2018-04-14T00:03:39.582Z,36.20
2018-04-14T00:06:06.273Z,36.47
2018-04-14T00:08:33.241Z,35.23
2018-04-14T00:10:59.977Z,34.97
2018-04-14T00:13:26.925Z,36.00
2018-04-14T00:15:54.788Z,37.13
2018-04-14T00:18:21.531Z,37.33
2018-04-14T00:20:48.374Z,33.83
2018-04-14T00:23:15.217Z,35.93
2018-04-14T00:25:42.058Z,36.93
2018-04-14T00:28:08.900Z,37.67
2018-04-14T00:30:35.557Z,36.37
2018-04-14T00:33:02.306Z,35.00
2018-04-14T00:35:29.120Z,35.63
2018-04-14T00:37:55.868Z,35.33
2018-04-14T00:40:22.700Z,34.60
2018-04-14T00:42:49.547Z,35.23
2018-04-14T00:45:16.480Z,33.10
2018-04-14T00:47:43.229Z,34.20
2018-04-14T00:50:09.969Z,35.43
2018-04-14T00:52:36.678Z,31.90
2018-04-14T00:55:03.582Z,34.13
2018-04-14T00:57:30.394Z,33.30
2018-04-14T00:59:57.235Z,33.73
2018-04-14T01:02:24.073Z,35.13
2018-04-14T01:04:50.754Z,34.30
2018-04-14T01:07:17.580Z,34.43
2018-04-14T01:09:44.404Z,34.07
2018-04-14T01:12:11.238Z,32.67
2018-04-14T01:14:38.079Z,33.97
2018-04-14T01:17:04.820Z,33.43
2018-04-14T01:19:31.573Z,33.23
2018-04-14T01:21:58.406Z,32.47
2018-04-14T01:24:25.245Z,35.37
2018-04-14T01:26:51.905Z,35.53
2018-04-14T01:29:18.728Z,34.03
2018-04-14T01:31:45.677Z,33.77
2018-04-14T01:34:12.411Z,33.43
2018-04-14T01:36:39.474Z,33.70
2018-04-14T01:39:06.304Z,33.37
2018-04-14T01:41:32.993Z,33.83
2018-04-14T01:43:59.849Z,32.50
2018-04-14T01:46:26.622Z,32.93
2018-04-14T01:48:53.463Z,32.83
2018-04-14T01:51:20.412Z,33.60
2018-04-14T01:53:47.047Z,32.20
2018-04-14T01:56:13.789Z,33.43
2018-04-14T01:58:41.553Z,31.47
2018-04-14T02:01:08.454Z,33.10
2018-04-14T02:03:36.057Z,34.40
2018-04-14T02:06:03.001Z,33.93
2018-04-14T02:08:29.842Z,31.93
2018-04-14T02:10:56.687Z,32.67
2018-04-14T02:13:23.421Z,32.93
2018-04-14T02:15:50.268Z,32.90
2018-04-14T02:18:17.213Z,32.20
2018-04-14T02:20:44.158Z,32.77
2018-04-14T02:23:11.598Z,32.20
2018-04-14T02:25:38.455Z,33.87
2018-04-14T02:28:05.294Z,31.30
2018-04-14T02:30:31.961Z,31.63
2018-04-14T02:32:58.663Z,33.17
2018-04-14T02:35:25.523Z,30.50
2018-04-14T02:37:52.259Z,33.50
2018-04-14T02:40:19.099Z,32.87
2018-04-14T02:42:45.766Z,35.53
2018-04-14T02:45:12.695Z,33.20
2018-04-14T02:47:39.523Z,34.80
2018-04-14T02:50:06.268Z,32.23
2018-04-14T02:52:33.004Z,35.40
2018-04-14T02:54:59.949Z,35.07
2018-04-14T02:57:26.686Z,34.87
2018-04-14T02:59:53.431Z,33.27
2018-04-14T03:02:20.370Z,34.80
2018-04-14T03:04:47.114Z,36.33
2018-04-14T03:07:13.960Z,34.27
2018-04-14T03:09:40.696Z,34.90
2018-04-14T03:12:07.382Z,37.23
2018-04-14T03:14:34.056Z,34.37
2018-04-14T03:17:00.814Z,34.00
2018-04-14T03:19:27.759Z,35.67
2018-04-14T03:21:54.600Z,33.87
2018-04-14T03:24:21.442Z,32.63
2018-04-14T03:26:48.083Z,32.87
2018-04-14T03:29:15.026Z,33.57
2018-04-14T03:31:41.761Z,34.47
2018-04-14T03:34:08.430Z,34.30
2018-04-14T03:36:35.245Z,32.00
2018-04-14T03:39:02.190Z,33.17
2018-04-14T03:41:28.932Z,34.27
2018-04-14T03:43:55.590Z,33.27
2018-04-14T03:46:22.510Z,32.17
2018-04-14T03:48:49.455Z,33.70
2018-04-14T03:51:16.604Z,35.03
2018-04-14T03:53:43.346Z,33.20
2018-04-14T03:56:10.189Z,33.33
2018-04-14T03:58:37.131Z,32.93
2018-04-14T04:01:03.794Z,34.20
2018-04-14T04:03:30.612Z,32.27
2018-04-14T04:05:57.351Z,32.70
2018-04-14T04:08:24.297Z,34.47
2018-04-14T04:10:51.036Z,32.80
2018-04-14T04:13:17.874Z,35.53
2018-04-14T04:15:44.582Z,32.53
2018-04-14T04:18:11.329Z,35.23
2018-04-14T04:21:02.162Z,35.17
2018-04-14T04:23:41.284Z,34.27
2018-04-14T04:26:08.650Z,33.90
2018-04-14T04:28:36.002Z,35.17
2018-04-14T04:31:02.843Z,35.87
2018-04-14T04:33:29.481Z,36.23
2018-04-14T04:35:56.221Z,36.63
2018-04-14T04:38:22.854Z,38.57
2018-04-14T04:40:49.600Z,37.67
2018-04-14T04:43:16.236Z,37.87
2018-04-14T04:45:42.976Z,38.60
2018-04-14T04:48:09.613Z,37.17
2018-04-14T04:50:36.154Z,38.23
2018-04-14T04:53:02.787Z,38.30
2018-04-14T04:55:29.395Z,36.03
2018-04-14T04:57:56.102Z,34.97
2018-04-14T05:00:22.801Z,32.37
2018-04-14T05:02:49.440Z,36.03
2018-04-14T05:05:16.030Z,35.30
2018-04-14T05:07:42.815Z,35.90
2018-04-14T05:10:09.966Z,34.30
2018-04-14T05:12:36.514Z,34.07
2018-04-14T05:15:03.138Z,36.10
2018-04-14T05:17:29.775Z,34.40
2018-04-14T05:19:56.413Z,34.27
2018-04-14T05:22:22.986Z,34.63
2018-04-14T05:24:49.688Z,34.40
2018-04-14T05:27:16.321Z,36.23
2018-04-14T05:29:42.959Z,34.43
2018-04-14T05:32:09.518Z,31.47
2018-04-14T05:34:36.462Z,34.20
2018-04-14T05:37:02.997Z,32.50
2018-04-14T05:39:29.615Z,33.50
2018-04-14T05:41:56.248Z,34.73
2018-04-14T05:44:22.885Z,33.83
2018-04-14T05:46:49.631Z,33.60
2018-04-14T05:49:16.370Z,32.23
2018-04-14T05:51:43.109Z,33.23
2018-04-14T05:54:09.743Z,32.63
2018-04-14T05:56:36.271Z,31.97
2018-04-14T05:59:04.047Z,32.43
2018-04-14T06:01:30.579Z,32.07
2018-04-14T06:03:58.038Z,31.90
2018-04-14T06:06:24.879Z,32.23
2018-04-14T06:08:51.490Z,34.90
2018-04-14T06:11:18.872Z,32.67
2018-04-14T06:13:45.713Z,31.13
2018-04-14T06:16:12.557Z,31.93
2018-04-14T06:18:39.193Z,31.80
2018-04-14T06:21:05.929Z,33.43
2018-04-14T06:23:33.284Z,31.13
2018-04-14T06:26:00.336Z,31.03
2018-04-14T06:28:26.930Z,30.60
2018-04-14T06:30:54.528Z,29.73
2018-04-14T06:33:21.373Z,32.33
2018-04-14T06:35:48.216Z,31.87
2018-04-14T06:38:14.952Z,30.33
2018-04-14T06:40:41.798Z,31.07
2018-04-14T06:43:08.324Z,30.90
2018-04-14T06:45:35.893Z,31.33
2018-04-14T06:48:02.734Z,31.97
2018-04-14T06:50:29.369Z,29.70
2018-04-14T06:52:56.012Z,30.07
2018-04-14T06:55:22.775Z,31.70
2018-04-14T06:57:49.291Z,30.23
2018-04-14T07:00:15.922Z,31.87
2018-04-14T07:02:42.764Z,31.10
2018-04-14T07:05:09.312Z,29.40
2018-04-14T07:07:36.141Z,29.73
2018-04-14T07:10:02.881Z,31.33
2018-04-14T07:12:29.450Z,29.67
2018-04-14T07:14:55.977Z,30.57
2018-04-14T07:17:22.688Z,29.63
2018-04-14T07:19:49.328Z,28.03
2018-04-14T07:22:17.195Z,28.20
2018-04-14T07:24:43.828Z,30.20
2018-04-14T07:27:11.187Z,28.90
2018-04-14T07:29:38.644Z,28.07
2018-04-14T07:32:05.995Z,26.73
2018-04-14T07:34:33.452Z,25.50
2018-04-14T07:37:00.092Z,25.83
2018-04-14T07:39:26.831Z,26.43
2018-04-14T07:41:53.680Z,25.30
2018-04-14T07:44:20.313Z,25.70
2018-04-14T07:46:46.944Z,26.53
2018-04-14T07:49:14.504Z,26.60
2018-04-14T07:51:41.970Z,24.07
2018-04-14T07:54:08.597Z,25.23
2018-04-14T07:56:36.264Z,26.30
2018-04-14T07:59:02.999Z,25.40
2018-04-14T08:01:30.282Z,24.53
2018-04-14T08:03:56.991Z,25.17
2018-04-14T08:06:24.355Z,24.23
2018-04-14T08:08:51.090Z,24.73
2018-04-14T08:11:17.622Z,25.77
2018-04-14T08:13:45.113Z,24.50
2018-04-14T08:16:11.823Z,25.83
2018-04-14T08:18:38.460Z,24.57
2018-04-14T08:21:05.198Z,25.77
2018-04-14T08:23:31.837Z,27.03
2018-04-14T08:25:58.577Z,25.43
2018-04-14T08:28:25.928Z,25.87
2018-04-14T08:30:53.486Z,25.67
2018-04-14T08:33:20.843Z,26.57
2018-04-14T08:35:47.356Z,26.23
2018-04-14T08:38:14.626Z,25.60
2018-04-14T08:40:42.189Z,27.43
2018-04-14T08:43:09.750Z,25.27
2018-04-14T08:45:36.386Z,25.77
2018-04-14T08:48:02.934Z,26.00
2018-04-14T08:50:29.656Z,26.40
2018-04-14T08:52:56.399Z,25.00
2018-04-14T08:55:23.033Z,25.97
2018-04-14T08:57:50.303Z,24.53
2018-04-14T09:00:17.541Z,22.43
2018-04-14T09:02:44.382Z,24.63
2018-04-14T09:05:11.021Z,23.13
2018-04-14T09:07:37.655Z,21.80
2018-04-14T09:10:05.013Z,21.93
2018-04-14T09:12:31.649Z,24.03
2018-04-14T09:14:58.995Z,24.70
2018-04-14T09:17:26.473Z,24.57
2018-04-14T09:19:54.122Z,23.83
2018-04-14T09:22:20.863Z,25.63
2018-04-14T09:24:47.803Z,24.10
2018-04-14T09:27:14.547Z,24.00
2018-04-14T09:29:41.294Z,23.40
2018-04-14T09:32:08.124Z,24.97
2018-04-14T09:34:35.279Z,23.00
2018-04-14T09:37:02.131Z,23.30
2018-04-14T09:39:29.066Z,24.07
2018-04-14T09:41:55.839Z,22.93
2018-04-14T09:44:22.650Z,22.03
2018-04-14T09:46:49.381Z,21.63
2018-04-14T09:49:16.454Z,21.57
2018-04-14T09:51:43.167Z,22.63
2018-04-14T09:54:09.917Z,21.57
2018-04-14T09:56:36.863Z,20.80
2018-04-14T09:59:03.602Z,20.13
2018-04-14T10:01:30.446Z,21.57
2018-04-14T10:03:58.104Z,20.30
2018-04-14T10:06:25.049Z,20.30
2018-04-14T10:08:51.894Z,20.53
2018-04-14T10:11:18.735Z,20.20
2018-04-14T10:13:45.576Z,20.37
2018-04-14T10:16:12.243Z,19.90
2018-04-14T10:18:38.922Z,20.33
2018-04-14T10:21:05.694Z,19.93
2018-04-14T10:23:32.393Z,21.60
2018-04-14T10:25:59.240Z,21.03
2018-04-14T10:28:26.731Z,21.43
2018-04-14T10:30:53.576Z,20.67
2018-04-14T10:33:20.519Z,21.33
2018-04-14T10:35:47.221Z,21.43
2018-04-14T10:38:14.711Z,19.83
2018-04-14T10:40:41.659Z,19.63
2018-04-14T10:43:08.401Z,20.63
2018-04-14T10:45:35.097Z,21.63
2018-04-14T10:48:02.495Z,19.13
2018-04-14T10:50:29.229Z,19.57
2018-04-14T10:52:55.975Z,21.47
2018-04-14T10:55:22.816Z,20.27
2018-04-14T10:57:49.762Z,19.93
2018-04-14T11:00:16.603Z,19.30
2018-04-14T11:02:43.448Z,21.00
2018-04-14T11:05:10.348Z,19.90
2018-04-14T11:07:37.435Z,20.77
2018-04-14T11:10:04.175Z,20.37
2018-04-14T11:12:31.124Z,22.13
2018-04-14T11:14:58.071Z,20.33
2018-04-14T11:17:25.009Z,21.07
2018-04-14T11:19:55.707Z,19.67
2018-04-14T11:22:22.584Z,20.73
2018-04-14T11:24:50.148Z,20.90
2018-04-14T11:27:16.989Z,20.80
2018-04-14T11:29:44.774Z,20.07
2018-04-14T11:32:11.488Z,20.43
2018-04-14T11:34:38.537Z,21.33
2018-04-14T11:37:05.275Z,21.30
2018-04-14T11:39:33.164Z,19.63
2018-04-14T11:42:00.021Z,22.30
2018-04-14T11:44:26.928Z,20.53
2018-04-14T11:46:53.879Z,20.53
2018-04-14T11:49:21.029Z,21.40
2018-04-14T11:51:47.869Z,21.70
2018-04-14T11:54:14.815Z,20.80
2018-04-14T11:56:41.553Z,21.20
2018-04-14T11:59:08.290Z,21.83
2018-04-14T12:01:35.136Z,21.53
2018-04-14T12:04:01.876Z,22.80
2018-04-14T12:06:29.041Z,23.53
2018-04-14T12:08:55.717Z,21.27
2018-04-14T12:11:22.402Z,21.20
2018-04-14T12:13:49.347Z,22.53
2018-04-14T12:16:16.190Z,23.37
2018-04-14T12:18:42.968Z,21.00
2018-04-14T12:21:09.709Z,22.77
2018-04-14T12:23:37.173Z,21.23
2018-04-14T12:26:03.958Z,23.00
2018-04-14T12:28:30.744Z,23.07
2018-04-14T12:30:57.547Z,23.60
2018-04-14T12:33:24.250Z,23.07
2018-04-14T12:35:51.849Z,21.90
2018-04-14T12:38:18.897Z,22.13
2018-04-14T12:40:45.615Z,22.30
2018-04-14T12:43:12.513Z,22.33
2018-04-14T12:45:39.317Z,23.33
2018-04-14T12:48:06.159Z,23.60
2018-04-14T12:50:32.880Z,24.27
2018-04-14T12:53:00.360Z,24.30
2018-04-14T12:55:27.197Z,24.77
2018-04-14T12:57:53.992Z,25.43
2018-04-14T13:00:20.678Z,23.80
2018-04-14T13:02:47.853Z,25.00
2018-04-14T13:05:14.674Z,24.20
2018-04-14T13:07:41.413Z,25.10
2018-04-14T13:10:08.259Z,25.97
2018-04-14T13:12:35.200Z,25.67
2018-04-14T13:15:01.937Z,24.83
2018-04-14T13:17:28.779Z,23.57
2018-04-14T13:19:55.727Z,24.87
2018-04-14T13:22:22.382Z,25.10
2018-04-14T13:24:49.179Z,25.60
2018-04-14T13:27:15.942Z,25.50
2018-04-14T13:29:42.994Z,24.90
2018-04-14T13:32:09.734Z,25.27
2018-04-14T13:34:36.395Z,26.03
2018-04-14T13:37:03.210Z,27.43
2018-04-14T13:39:30.060Z,27.20
2018-04-14T13:41:56.898Z,26.90
2018-04-14T13:44:23.741Z,26.53
2018-04-14T13:46:50.578Z,26.67
2018-04-14T13:49:17.424Z,26.20
2018-04-14T13:51:44.373Z,25.77
2018-04-14T13:54:11.114Z,27.33
2018-04-14T13:56:37.796Z,27.37
2018-04-14T13:59:04.585Z,23.93
2018-04-14T14:01:31.431Z,26.97
2018-04-14T14:03:58.143Z,27.13
2018-04-14T14:06:25.013Z,26.83
2018-04-14T14:08:51.857Z,27.27
2018-04-14T14:11:18.596Z,26.90
2018-04-14T14:13:45.435Z,28.00
2018-04-14T14:16:12.108Z,27.00
2018-04-14T14:18:38.914Z,27.23
2018-04-14T14:21:05.763Z,27.13
2018-04-14T14:23:32.705Z,26.30
2018-04-14T14:25:59.548Z,26.80
2018-04-14T14:28:26.495Z,27.00
2018-04-14T14:30:53.538Z,26.93
2018-04-14T14:33:20.399Z,26.47
2018-04-14T14:35:47.111Z,27.50
2018-04-14T14:38:13.959Z,27.10
2018-04-14T14:40:40.806Z,27.23
2018-04-14T14:43:07.453Z,27.07
2018-04-14T14:45:34.136Z,27.10
2018-04-14T14:48:00.920Z,28.43
2018-04-14T14:50:28.073Z,26.50
2018-04-14T14:52:54.915Z,26.57
2018-04-14T14:55:21.543Z,28.80
2018-04-14T14:57:48.294Z,30.37
2018-04-14T15:00:15.031Z,28.63
2018-04-14T15:02:41.926Z,29.57
2018-04-14T15:05:08.723Z,29.33
2018-04-14T15:07:35.560Z,29.13
2018-04-14T15:10:02.403Z,28.53
2018-04-14T15:12:29.650Z,34.93
2018-04-14T15:14:56.299Z,30.90
2018-04-14T15:17:23.136Z,29.67
2018-04-14T15:19:49.814Z,29.13
2018-04-14T15:22:16.716Z,27.47
2018-04-14T15:24:43.559Z,29.20
2018-04-14T15:27:10.501Z,27.03
2018-04-14T15:29:37.173Z,27.37
2018-04-14T15:32:03.981Z,27.10
2018-04-14T15:34:30.672Z,28.17
2018-04-14T15:36:57.460Z,29.47
2018-04-14T15:39:24.404Z,29.37
2018-04-14T15:41:51.148Z,30.40
2018-04-14T15:44:18.112Z,28.97
2018-04-14T15:46:45.035Z,28.40
2018-04-14T15:49:11.769Z,29.17
2018-04-14T15:51:38.617Z,29.43
2018-04-14T15:54:05.351Z,28.63
2018-04-14T15:56:32.194Z,27.37
2018-04-14T15:58:59.040Z,27.57
2018-04-14T16:01:25.776Z,29.00
2018-04-14T16:03:52.465Z,27.33
2018-04-14T16:06:19.256Z,28.17
2018-04-14T16:08:46.204Z,27.87
2018-04-14T16:11:13.167Z,27.50
2018-04-14T16:13:39.992Z,26.80
2018-04-14T16:16:06.729Z,27.47
2018-04-14T16:18:33.678Z,28.67
2018-04-14T16:21:00.669Z,26.10
2018-04-14T16:23:27.459Z,25.97
2018-04-14T16:25:54.263Z,25.73
2018-04-14T16:28:22.582Z,26.43
2018-04-14T16:30:49.323Z,27.17
2018-04-14T16:33:16.137Z,25.47
2018-04-14T16:35:43.727Z,24.60
2018-04-14T16:38:10.398Z,23.97
2018-04-14T16:40:37.203Z,24.03
2018-04-14T16:43:03.879Z,23.43
2018-04-14T16:45:30.681Z,25.13
2018-04-14T16:47:57.628Z,23.10
2018-04-14T16:50:24.845Z,22.70
2018-04-14T16:52:52.440Z,24.37
2018-04-14T16:55:19.118Z,24.67
2018-04-14T16:57:47.291Z,22.80
2018-04-14T17:00:14.422Z,24.83
2018-04-14T17:02:41.243Z,25.47
2018-04-14T17:05:07.979Z,25.23
2018-04-14T17:07:34.674Z,24.93
2018-04-14T17:10:01.462Z,25.10
2018-04-14T17:12:28.404Z,24.57
2018-04-14T17:14:55.071Z,23.63
2018-04-14T17:17:21.988Z,24.13
2018-04-14T17:19:48.729Z,24.20
2018-04-14T17:22:15.573Z,25.40
2018-04-14T17:24:42.926Z,27.93
2018-04-14T17:27:09.617Z,22.97
2018-04-14T17:29:36.406Z,24.77
2018-04-14T17:32:03.349Z,22.77
2018-04-14T17:34:30.030Z,23.10
2018-04-14T17:36:57.650Z,25.70
2018-04-14T17:39:24.385Z,23.53
2018-04-14T17:41:51.062Z,23.73
2018-04-14T17:44:17.875Z,24.07
2018-04-14T17:46:44.549Z,23.63
2018-04-14T17:49:12.271Z,22.40
2018-04-14T17:51:38.930Z,22.97
2018-04-14T17:54:05.597Z,21.47
2018-04-14T17:56:32.596Z,23.43
2018-04-14T17:58:59.539Z,23.87
2018-04-14T18:01:26.383Z,22.67
2018-04-14T18:03:53.225Z,22.53
2018-04-14T18:06:20.314Z,24.33
2018-04-14T18:08:47.066Z,22.33
2018-04-14T18:11:13.701Z,22.70
2018-04-14T18:13:41.411Z,22.00
2018-04-14T18:16:08.273Z,22.57
2018-04-14T18:18:35.091Z,22.43
2018-04-14T18:21:01.833Z,22.77
2018-04-14T18:23:28.653Z,23.00
2018-04-14T18:25:55.408Z,22.93
2018-04-14T18:28:22.362Z,21.90
2018-04-14T18:30:49.306Z,24.30
2018-04-14T18:33:16.148Z,22.93
2018-04-14T18:35:42.888Z,24.23
2018-04-14T18:38:09.594Z,22.20
2018-04-14T18:40:36.306Z,23.80
2018-04-14T18:43:03.063Z,24.93
2018-04-14T18:45:29.830Z,25.47
2018-04-14T18:47:56.682Z,24.93
2018-04-14T18:50:23.386Z,23.00
2018-04-14T18:52:50.820Z,24.17
2018-04-14T18:55:17.555Z,23.50
2018-04-14T18:57:44.201Z,23.47
2018-04-14T19:00:11.069Z,24.97
2018-04-14T19:02:38.490Z,25.40
2018-04-14T19:05:05.988Z,26.10
2018-04-14T19:07:32.746Z,25.13
2018-04-14T19:09:59.472Z,25.00
2018-04-14T19:12:26.233Z,23.07
2018-04-14T19:14:52.929Z,25.23
2018-04-14T19:17:20.430Z,24.50
2018-04-14T19:19:47.142Z,24.57
2018-04-14T19:22:14.595Z,26.90
2018-04-14T19:24:42.040Z,26.73
2018-04-14T19:27:08.942Z,26.80
2018-04-14T19:29:35.606Z,26.53
2018-04-14T19:32:02.414Z,27.03
2018-04-14T19:34:29.356Z,29.33
2018-04-14T19:36:56.006Z,26.37
2018-04-14T19:39:22.833Z,25.73
2018-04-14T19:41:49.520Z,25.10
2018-04-14T19:44:17.852Z,25.33
2018-04-14T19:46:44.798Z,25.53
2018-04-14T19:49:11.742Z,26.10
2018-04-14T19:51:38.586Z,26.60
2018-04-14T19:54:05.367Z,26.87
2018-04-14T19:56:32.277Z,24.70
2018-04-14T19:58:58.957Z,24.93
2018-04-14T20:01:25.851Z,26.10
2018-04-14T20:03:52.694Z,26.73
2018-04-14T20:06:19.405Z,25.03
2018-04-14T20:08:46.375Z,23.77
2018-04-14T20:11:13.222Z,24.27
2018-04-14T20:13:39.960Z,25.97
2018-04-14T20:16:06.798Z,25.87
2018-04-14T20:18:33.657Z,26.30
2018-04-14T20:21:00.589Z,26.83
2018-04-14T20:23:27.329Z,25.13
2018-04-14T20:25:54.173Z,26.40
2018-04-14T20:28:21.342Z,27.00
2018-04-14T20:30:49.085Z,26.57
2018-04-14T20:33:15.928Z,27.13
2018-04-14T20:35:42.766Z,28.47
2018-04-14T20:38:09.613Z,26.47
2018-04-14T20:40:36.451Z,25.40
2018-04-14T20:43:03.296Z,26.90
2018-04-14T20:45:30.035Z,26.30
2018-04-14T20:47:56.984Z,26.70
2018-04-14T20:50:23.673Z,25.60
2018-04-14T20:52:51.418Z,25.50
2018-04-14T20:55:18.220Z,23.70
2018-04-14T20:57:45.066Z,24.53
2018-04-14T21:00:11.911Z,27.67
2018-04-14T21:02:39.056Z,27.03
2018-04-14T21:05:05.797Z,25.83
2018-04-14T21:07:32.640Z,27.17
2018-04-14T21:09:59.585Z,25.27
2018-04-14T21:12:26.322Z,26.63
2018-04-14T21:14:53.577Z,28.07
2018-04-14T21:17:20.356Z,26.43
2018-04-14T21:19:48.593Z,25.27
2018-04-14T21:22:15.836Z,26.63
2018-04-14T21:24:42.495Z,26.93
2018-04-14T21:27:09.324Z,26.10
2018-04-14T21:29:36.264Z,27.37
2018-04-14T21:32:03.213Z,25.77
2018-04-14T21:34:30.057Z,27.43
2018-04-14T21:36:56.899Z,28.40
2018-04-14T21:39:23.535Z,27.37
2018-04-14T21:41:50.378Z,26.00
2018-04-14T21:44:17.058Z,29.30
2018-04-14T21:46:43.854Z,27.17
2018-04-14T21:49:10.498Z,28.50
2018-04-14T21:51:37.322Z,26.53
2018-04-14T21:54:04.693Z,27.47
2018-04-14T21:56:31.534Z,27.37
2018-04-14T21:58:58.183Z,29.43
2018-04-14T22:01:25.011Z,27.40
2018-04-14T22:03:51.857Z,27.43
2018-04-14T22:06:18.550Z,28.63
2018-04-14T22:08:46.053Z,28.53
2018-04-14T22:11:12.890Z,26.17
2018-04-14T22:13:39.738Z,27.80
2018-04-14T22:16:06.464Z,28.83
2018-04-14T22:18:33.177Z,28.07
2018-04-14T22:21:00.778Z,27.13
2018-04-14T22:23:27.615Z,28.70
2018-04-14T22:25:54.568Z,27.93
2018-04-14T22:28:21.421Z,28.13
2018-04-14T22:30:48.454Z,26.90
2018-04-14T22:33:15.399Z,26.17
2018-04-14T22:35:42.232Z,27.97
2018-04-14T22:38:08.980Z,27.03
2018-04-14T22:40:35.812Z,29.30
2018-04-14T22:43:02.665Z,26.97
2018-04-14T22:45:29.482Z,27.47
2018-04-14T22:47:56.241Z,30.17
2018-04-14T22:50:23.091Z,31.57
2018-04-14T22:52:50.234Z,25.93
2018-04-14T22:55:16.895Z,29.55
2018-04-14T22:57:43.555Z,27.20
2018-04-14T23:00:10.458Z,26.10
2018-04-14T23:02:37.096Z,27.80
2018-04-14T23:05:04.458Z,25.83
2018-04-14T23:07:31.294Z,28.20
2018-04-14T23:09:58.033Z,26.70
2018-04-14T23:12:24.875Z,28.40
2018-04-14T23:14:51.525Z,27.47
2018-04-14T23:17:18.351Z,28.07
2018-04-14T23:19:45.088Z,26.70
2018-04-14T23:22:15.110Z,27.75
2018-04-14T23:24:41.952Z,26.27
2018-04-14T23:27:08.794Z,27.63
2018-04-14T23:29:35.544Z,29.20
2018-04-14T23:32:02.273Z,26.90
2018-04-14T23:34:28.969Z,28.58
2018-04-14T23:36:55.711Z,27.95
2018-04-14T23:39:22.595Z,30.97
2018-04-14T23:41:49.307Z,30.33
2018-04-14T23:44:16.176Z,26.27
2018-04-14T23:46:43.120Z,26.08
2018-04-14T23:49:09.768Z,30.10
2018-04-14T23:51:36.907Z,29.25
2018-04-14T23:54:03.648Z,30.45
2018-04-14T23:56:30.487Z,30.50
2018-04-14T23:58:57.259Z,31.45
